Time;durP1;ratioP1;P1;durP2;ratioP2;P2;SDS_P1;SDS_P2;PMS_P1;PMS_P2;Temp;Humidity;BMP_temperature;BMP_pressure;BME280_temperature;BME280_humidity;BME280_pressure;Samples;Min_cycle;Max_cycle;Signal;HPM_P1;HPM_P2
2023/03/17 00:01:07;;;;;;;6.78;3.92;;;;;;;13.36;45.97;100800.09;5064195;28;20115;-44
2023/03/17 00:03:36;;;;;;;7.40;4.07;;;;;;;13.54;45.81;100801.00;5069644;28;20032;-46
2023/03/17 00:06:03;;;;;;;6.95;4.00;;;;;;;13.46;46.31;100795.75;5070297;28;20036;-44
2023/03/17 00:08:32;;;;;;;6.03;3.63;;;;;;;13.21;46.62;100773.91;5063420;28;20032;-44
2023/03/17 00:10:57;;;;;;;7.05;3.90;;;;;;;13.25;46.73;100780.00;5063380;28;20040;-44
2023/03/17 00:13:23;;;;;;;8.82;3.90;;;;;;;13.41;46.35;100773.94;5059373;28;20166;-43
2023/03/17 00:16:00;;;;;;;7.00;3.72;;;;;;;13.45;46.33;100775.66;5063187;28;20495;-43
2023/03/17 00:18:26;;;;;;;8.45;4.00;;;;;;;13.23;46.72;100771.31;5059128;28;20033;-43
2023/03/17 00:20:51;;;;;;;8.30;4.05;;;;;;;12.97;47.38;100777.34;5062356;28;20040;-44
2023/03/17 00:23:22;;;;;;;8.27;4.10;;;;;;;13.42;46.70;100770.41;5059893;28;20028;-43
2023/03/17 00:25:48;;;;;;;8.30;4.00;;;;;;;13.16;46.99;100770.41;5063115;28;20119;-44
2023/03/17 00:28:22;;;;;;;9.13;4.15;;;;;;;13.39;46.29;100770.44;5060291;28;20086;-43
2023/03/17 00:30:54;;;;;;;9.10;4.10;;;;;;;13.25;46.69;100780.00;5065095;28;20052;-49
2023/03/17 00:33:24;;;;;;;7.13;4.20;;;;;;;13.11;46.95;100772.13;5066179;28;20506;-44
2023/03/17 00:35:49;;;;;;;9.07;4.45;;;;;;;12.97;47.56;100781.69;5067840;28;20038;-44
2023/03/17 00:38:16;;;;;;;7.18;4.13;;;;;;;13.30;46.86;100781.75;5060706;28;20027;-43
2023/03/17 00:40:43;;;;;;;6.80;3.83;;;;;;;13.33;46.88;100783.50;5063378;28;20500;-46
2023/03/17 00:43:09;;;;;;;7.13;4.10;;;;;;;13.14;47.27;100774.78;5058581;28;20035;-45
2023/03/17 00:45:35;;;;;;;10.27;4.07;;;;;;;13.29;47.07;100766.06;5068357;28;20033;-44
2023/03/17 00:48:01;;;;;;;9.73;4.28;;;;;;;13.12;47.33;100749.41;5065676;28;20036;-43
2023/03/17 00:50:27;;;;;;;6.55;4.30;;;;;;;13.00;47.56;100747.66;5059110;28;20029;-44
2023/03/17 00:52:56;;;;;;;8.50;4.30;;;;;;;13.23;47.35;100758.22;5062349;28;20071;-45
2023/03/17 00:55:25;;;;;;;6.95;3.63;;;;;;;13.27;47.15;100768.69;5059367;28;20086;-46
2023/03/17 00:57:50;;;;;;;7.20;4.05;;;;;;;13.00;47.82;100765.97;5063425;28;20028;-44
2023/03/17 01:00:28;;;;;;;7.72;4.00;;;;;;;13.02;47.96;100764.25;5059499;28;20467;-44
2023/03/17 01:02:55;;;;;;;7.97;4.30;;;;;;;12.97;47.78;100769.47;5062678;28;20086;-43
2023/03/17 01:05:23;;;;;;;8.43;4.18;;;;;;;13.31;47.46;100767.78;5059458;28;20182;-46
2023/03/17 01:07:52;;;;;;;7.75;4.32;;;;;;;13.18;47.67;100765.16;5063331;28;20041;-44
2023/03/17 01:10:22;;;;;;;8.07;4.30;;;;;;;13.23;47.40;100771.31;5059774;28;20071;-43
2023/03/17 01:12:48;;;;;;;6.30;4.30;;;;;;;13.34;47.36;100773.06;5065665;28;20154;-42
2023/03/17 01:15:14;;;;;;;8.20;4.03;;;;;;;13.19;47.81;100767.78;5067523;28;20046;-44
2023/03/17 01:17:41;;;;;;;8.10;4.57;;;;;;;13.15;47.70;100759.94;5074973;28;20090;-42
2023/03/17 01:20:14;;;;;;;6.75;4.10;;;;;;;13.23;47.72;100760.84;5071711;28;20032;-44
2023/03/17 01:22:40;;;;;;;6.03;4.00;;;;;;;13.24;47.71;100757.31;5066522;28;20518;-45
2023/03/17 01:25:06;;;;;;;9.32;4.40;;;;;;;13.29;47.36;100750.38;5063013;28;20550;-45
2023/03/17 01:27:35;;;;;;;6.32;4.22;;;;;;;13.38;47.11;100745.09;5068455;28;20163;-44
2023/03/17 01:30:02;;;;;;;7.22;4.20;;;;;;;13.27;47.69;100741.63;5068091;28;20028;-44
2023/03/17 01:32:28;;;;;;;9.45;4.05;;;;;;;12.99;48.11;100733.69;5064069;28;20113;-44
2023/03/17 01:34:53;;;;;;;7.43;4.22;;;;;;;13.04;47.89;100738.09;5067646;28;20157;-45
2023/03/17 01:37:20;;;;;;;6.90;4.22;;;;;;;13.35;47.49;100735.53;5063974;28;20039;-45
2023/03/17 01:39:46;;;;;;;8.07;4.00;;;;;;;13.16;47.77;100732.91;5068059;28;20170;-44
2023/03/17 01:42:12;;;;;;;7.30;4.00;;;;;;;13.13;47.71;100723.28;5065251;28;20028;-44
2023/03/17 01:45:06;;;;;;;8.52;4.30;;;;;;;13.20;47.81;100713.69;5069800;28;20037;-52
2023/03/17 01:47:31;;;;;;;6.32;3.75;;;;;;;13.31;47.52;100714.56;5066523;28;20037;-45
2023/03/17 01:50:07;;;;;;;7.70;4.03;;;;;;;13.54;46.85;100719.81;5072124;28;20040;-46
2023/03/17 01:52:37;;;;;;;7.07;4.00;;;;;;;13.56;46.86;100725.88;5072569;28;20036;-44
2023/03/17 01:55:06;;;;;;;7.30;3.80;;;;;;;13.54;46.84;100722.41;5079371;28;20040;-42
2023/03/17 01:57:36;;;;;;;7.20;3.95;;;;;;;13.42;46.93;100719.81;5071103;28;20550;-45
2023/03/17 02:00:12;;;;;;;8.88;3.75;;;;;;;13.51;46.70;100725.03;5072986;28;20466;-44
2023/03/17 02:02:41;;;;;;;7.18;4.30;;;;;;;13.32;47.34;100705.84;5065200;28;20494;-44
2023/03/17 02:05:10;;;;;;;8.48;3.92;;;;;;;13.37;47.17;100707.56;5063784;28;20039;-43
2023/03/17 02:07:36;;;;;;;8.85;3.88;;;;;;;13.66;46.65;100710.16;5067534;28;20045;-47
2023/03/17 02:10:03;;;;;;;7.43;3.70;;;;;;;13.66;46.65;100725.03;5069872;28;20571;-44
2023/03/17 02:12:29;;;;;;;7.60;3.63;;;;;;;13.58;46.61;100705.81;5066862;28;20064;-46
2023/03/17 02:14:56;;;;;;;4.95;3.20;;;;;;;13.68;46.24;100704.91;5069034;28;20113;-43
2023/03/17 02:17:23;;;;;;;7.38;3.67;;;;;;;13.66;46.10;100704.06;5066422;28;20101;-45
2023/03/17 02:19:50;;;;;;;8.30;3.78;;;;;;;13.60;46.25;100704.06;5067352;28;20401;-43
2023/03/17 02:22:17;;;;;;;7.53;3.85;;;;;;;13.56;46.14;100700.56;5062001;28;20233;-43
2023/03/17 02:24:50;;;;;;;6.05;3.80;;;;;;;13.66;45.97;100707.53;5065786;28;20042;-42
2023/03/17 02:27:33;;;;;;;7.90;3.47;;;;;;;13.67;46.03;100696.19;5060806;28;20062;-45
2023/03/17 02:29:59;;;;;;;8.15;3.75;;;;;;;13.68;46.16;100705.78;5067461;28;20498;-46
2023/03/17 02:32:25;;;;;;;6.88;3.63;;;;;;;13.69;45.97;100704.91;5063023;28;20039;-44
2023/03/17 02:34:51;;;;;;;6.03;3.30;;;;;;;13.72;45.83;100704.91;5066426;28;20443;-44
2023/03/17 02:37:18;;;;;;;7.07;4.00;;;;;;;13.77;46.00;100702.28;5062168;28;20088;-44
2023/03/17 02:39:43;;;;;;;8.23;3.60;;;;;;;13.52;46.31;100704.09;5066289;28;20076;-45
2023/03/17 02:42:09;;;;;;;7.65;3.80;;;;;;;13.62;46.15;100703.19;5064909;28;20078;-44
2023/03/17 02:44:35;;;;;;;6.07;3.60;;;;;;;13.49;46.25;100693.59;5066742;28;20040;-44
2023/03/17 02:47:00;;;;;;;7.07;3.42;;;;;;;13.67;45.97;100690.94;5064930;28;20123;-46
2023/03/17 02:49:27;;;;;;;6.18;3.40;;;;;;;13.82;45.71;100708.38;5061461;28;20509;-43
2023/03/17 02:51:53;;;;;;;5.97;3.20;;;;;;;13.59;45.95;100702.31;5064939;28;20033;-43
2023/03/17 02:54:18;;;;;;;6.80;3.40;;;;;;;13.65;45.99;100699.69;5064331;28;20144;-44
2023/03/17 02:56:44;;;;;;;6.90;3.50;;;;;;;13.74;45.82;100697.03;5068438;28;20032;-43
2023/03/17 02:59:09;;;;;;;7.78;3.30;;;;;;;13.60;45.96;100702.31;5061964;28;20037;-45
2023/03/17 03:01:35;;;;;;;8.02;3.40;;;;;;;13.67;45.85;100709.28;5064704;28;20041;-43
2023/03/17 03:04:01;;;;;;;6.38;3.65;;;;;;;13.72;45.87;100704.91;5064961;28;20028;-43
2023/03/17 03:06:26;;;;;;;6.28;3.22;;;;;;;13.76;45.76;100693.56;5061298;28;20036;-45
2023/03/17 03:08:52;;;;;;;7.35;3.40;;;;;;;13.73;45.90;100697.91;5065019;28;20376;-43
2023/03/17 03:11:18;;;;;;;7.32;3.25;;;;;;;13.60;46.02;100694.44;5060795;28;20394;-44
2023/03/17 03:13:44;;;;;;;7.75;3.22;;;;;;;13.67;46.02;100700.53;5064450;28;20102;-44
2023/03/17 03:16:09;;;;;;;6.50;3.30;;;;;;;13.69;45.48;100701.41;5060575;28;20494;-45
2023/03/17 03:18:35;;;;;;;6.25;3.47;;;;;;;13.63;45.87;100720.66;5065258;28;20128;-44
2023/03/17 03:21:02;;;;;;;5.70;3.25;;;;;;;13.72;45.77;100719.78;5064030;28;20047;-45
2023/03/17 03:23:28;;;;;;;7.35;3.35;;;;;;;13.73;45.85;100714.50;5060392;28;20467;-44
2023/03/17 03:25:53;;;;;;;6.22;3.60;;;;;;;13.61;46.23;100716.28;5064659;28;20060;-46
2023/03/17 03:28:18;;;;;;;5.72;3.40;;;;;;;13.75;45.67;100711.91;5060662;28;20107;-43
2023/03/17 03:30:44;;;;;;;7.22;3.53;;;;;;;13.60;46.04;100710.16;5064420;28;20029;-46
2023/03/17 03:33:12;;;;;;;5.80;3.13;;;;;;;13.72;45.97;100706.69;5061980;28;20111;-47
2023/03/17 03:35:37;;;;;;;7.32;3.40;;;;;;;13.80;45.74;100712.75;5065735;28;20521;-45
2023/03/17 03:38:03;;;;;;;6.60;3.50;;;;;;;13.73;45.83;100716.25;5067160;28;20096;-44
2023/03/17 03:40:28;;;;;;;5.82;3.75;;;;;;;13.68;45.80;100718.88;5067520;28;20390;-45
2023/03/17 03:42:53;;;;;;;7.97;3.40;;;;;;;13.75;45.70;100725.00;5070775;28;20490;-43
2023/03/17 03:45:19;;;;;;;6.25;3.42;;;;;;;13.76;45.78;100726.75;5063068;28;20024;-43
2023/03/17 03:47:44;;;;;;;5.63;3.53;;;;;;;13.73;45.63;100731.97;5070019;28;20051;-44
2023/03/17 03:50:10;;;;;;;5.85;3.13;;;;;;;13.82;45.69;100732.84;5069485;28;20036;-45
2023/03/17 03:52:36;;;;;;;5.95;3.50;;;;;;;13.76;45.70;100734.59;5070164;28;20127;-43
2023/03/17 03:55:02;;;;;;;6.22;3.22;;;;;;;13.75;45.67;100744.22;5065046;28;20029;-44
2023/03/17 03:57:27;;;;;;;8.50;3.38;;;;;;;13.75;45.70;100736.34;5062762;28;20033;-44
2023/03/17 03:59:53;;;;;;;5.82;3.33;;;;;;;13.72;45.75;100735.50;5066266;28;20038;-44
2023/03/17 04:02:18;;;;;;;6.28;3.25;;;;;;;13.75;45.49;100735.47;5062700;28;20517;-42
2023/03/17 04:04:44;;;;;;;6.53;3.35;;;;;;;13.78;45.58;100741.56;5071368;28;20117;-44
2023/03/17 04:07:10;;;;;;;7.45;3.17;;;;;;;13.82;45.42;100735.47;5067757;28;20033;-44
2023/03/17 04:09:36;;;;;;;7.72;3.40;;;;;;;13.73;45.61;100739.84;5071626;28;20028;-48
2023/03/17 04:12:02;;;;;;;8.90;3.50;;;;;;;13.53;45.83;100739.00;5071133;28;20032;-42
2023/03/17 04:14:27;;;;;;;5.35;3.10;;;;;;;13.74;45.87;100726.75;5065080;28;20032;-43
2023/03/17 04:16:53;;;;;;;5.95;3.22;;;;;;;13.83;45.33;100720.63;5068466;28;20028;-44
2023/03/17 04:19:20;;;;;;;5.93;3.33;;;;;;;13.89;45.32;100723.22;5060134;28;20028;-43
2023/03/17 04:21:46;;;;;;;6.22;3.00;;;;;;;13.90;45.30;100726.72;5063674;28;20037;-42
2023/03/17 04:24:11;;;;;;;5.88;3.08;;;;;;;13.90;45.46;100734.59;5061435;28;20089;-42
2023/03/17 04:26:36;;;;;;;6.03;3.35;;;;;;;13.86;45.49;100738.06;5067142;28;20039;-45
2023/03/17 04:29:02;;;;;;;6.55;3.53;;;;;;;13.77;45.39;100733.72;5064704;28;20048;-43
2023/03/17 04:31:27;;;;;;;8.45;3.40;;;;;;;13.97;45.17;100729.28;5059670;28;22153;-44
2023/03/17 04:33:52;;;;;;;7.60;3.45;;;;;;;14.00;45.19;100726.69;5063073;28;20085;-46
2023/03/17 04:36:22;;;;;;;6.68;3.40;;;;;;;13.94;45.11;100717.97;5057976;28;20028;-43
2023/03/17 04:38:48;;;;;;;5.85;3.45;;;;;;;13.96;45.03;100738.06;5063678;28;20029;-42
2023/03/17 04:41:14;;;;;;;6.10;3.33;;;;;;;14.06;44.66;100734.53;5058649;28;20226;-44
2023/03/17 04:43:40;;;;;;;5.75;3.20;;;;;;;13.95;44.93;100743.28;5063773;28;20399;-46
2023/03/17 04:46:06;;;;;;;5.80;3.22;;;;;;;14.07;44.98;100725.78;5060664;28;20135;-44
2023/03/17 04:48:32;;;;;;;9.38;3.70;;;;;;;14.06;45.23;100723.16;5063391;28;20051;-44
2023/03/17 04:50:57;;;;;;;8.52;3.60;;;;;;;14.06;45.18;100728.41;5063378;28;20470;-43
2023/03/17 04:53:22;;;;;;;6.63;3.50;;;;;;;14.06;45.18;100723.16;5059822;28;20445;-45
2023/03/17 04:55:48;;;;;;;4.90;3.10;;;;;;;13.84;45.46;100735.47;5063169;28;20490;-44
2023/03/17 04:58:13;;;;;;;6.47;3.22;;;;;;;13.99;45.52;100724.06;5059786;28;20029;-43
2023/03/17 05:00:38;;;;;;;6.10;3.45;;;;;;;14.00;45.49;100718.81;5063505;28;20402;-44
2023/03/17 05:03:05;;;;;;;8.18;3.83;;;;;;;13.94;45.16;100708.34;5062435;28;20033;-45
2023/03/17 05:05:31;;;;;;;4.97;3.15;;;;;;;14.05;45.20;100706.56;5059244;28;20028;-43
2023/03/17 05:07:57;;;;;;;6.82;3.30;;;;;;;14.00;45.32;100700.47;5064004;28;20124;-42
2023/03/17 05:10:22;;;;;;;5.18;3.30;;;;;;;14.14;45.29;100696.06;5059584;28;22604;-49
2023/03/17 05:12:48;;;;;;;8.82;4.05;;;;;;;14.02;45.06;100708.34;5061982;28;20036;-43
2023/03/17 05:15:13;;;;;;;7.10;3.50;;;;;;;14.10;45.02;100717.91;5058910;28;20029;-44
2023/03/17 05:17:38;;;;;;;6.55;3.30;;;;;;;14.09;45.14;100705.66;5066888;28;20089;-46
2023/03/17 05:20:04;;;;;;;6.03;3.45;;;;;;;14.10;45.06;100677.69;5065118;28;20040;-56
2023/03/17 05:22:30;;;;;;;6.03;3.30;;;;;;;14.10;45.06;100661.97;5064209;28;20032;-43
2023/03/17 05:24:55;;;;;;;6.45;3.75;;;;;;;14.09;45.13;100666.34;5062007;28;20040;-44
2023/03/17 05:27:21;;;;;;;9.57;3.33;;;;;;;13.98;45.58;100677.75;5058517;28;20133;-41
2023/03/17 05:29:47;;;;;;;6.82;3.70;;;;;;;13.89;45.92;100683.91;5062096;28;20059;-45
2023/03/17 05:32:13;;;;;;;7.80;3.40;;;;;;;13.83;45.94;100683.94;5056388;28;20066;-43
2023/03/17 05:34:38;;;;;;;6.38;3.20;;;;;;;13.78;45.94;100712.75;5061650;28;20071;-51
2023/03/17 05:37:03;;;;;;;6.63;3.40;;;;;;;13.84;45.86;100719.75;5059106;28;20086;-49
2023/03/17 05:39:29;;;;;;;5.97;3.47;;;;;;;13.73;46.11;100726.72;5061918;28;20040;-43
2023/03/17 05:41:55;;;;;;;7.55;3.35;;;;;;;13.81;46.17;100722.34;5061777;28;20139;-42
2023/03/17 05:44:21;;;;;;;7.50;3.85;;;;;;;13.74;46.21;100713.63;5058873;28;20021;-42
2023/03/17 05:46:46;;;;;;;5.88;3.50;;;;;;;13.75;46.28;100707.53;5062542;28;20250;-46
2023/03/17 05:49:11;;;;;;;8.00;3.67;;;;;;;13.68;46.41;100710.16;5058587;28;20082;-45
2023/03/17 05:51:37;;;;;;;6.90;3.67;;;;;;;13.75;46.44;100706.66;5062660;28;20028;-44
2023/03/17 05:54:02;;;;;;;7.10;3.80;;;;;;;13.82;46.10;100696.16;5061905;28;20046;-43
2023/03/17 05:56:32;;;;;;;8.52;3.90;;;;;;;13.71;46.70;100713.66;5059077;28;20051;-48
2023/03/17 05:58:59;;;;;;;9.07;3.70;;;;;;;13.80;46.26;100702.25;5064995;28;20402;-43
2023/03/17 06:01:24;;;;;;;6.25;3.50;;;;;;;13.83;46.25;100691.78;5060137;28;20032;-42
2023/03/17 06:03:49;;;;;;;7.53;3.70;;;;;;;13.76;46.53;100676.97;5066861;28;20037;-44
2023/03/17 06:06:15;;;;;;;9.13;4.10;;;;;;;13.77;46.60;100689.19;5061776;28;20032;-46
2023/03/17 06:08:40;;;;;;;7.32;3.58;;;;;;;13.79;46.57;100690.91;5068296;28;20028;-43
2023/03/17 06:11:06;;;;;;;6.68;3.83;;;;;;;13.80;46.51;100687.41;5070148;28;20028;-54
2023/03/17 06:13:31;;;;;;;8.25;3.97;;;;;;;13.70;46.72;100690.06;5063689;28;20044;-44
2023/03/17 06:15:56;;;;;;;6.53;3.47;;;;;;;13.80;46.19;100695.28;5069663;28;20529;-46
2023/03/17 06:18:22;;;;;;;8.77;3.60;;;;;;;13.85;46.38;100700.50;5065816;28;20086;-46
2023/03/17 06:20:47;;;;;;;6.63;3.63;;;;;;;13.87;46.61;100713.59;5067685;28;20033;-45
2023/03/17 06:23:12;;;;;;;8.32;3.53;;;;;;;13.86;46.60;100724.97;5061834;28;20144;-44
2023/03/17 06:25:38;;;;;;;8.02;3.83;;;;;;;13.92;46.53;100723.19;5065746;28;20117;-44
2023/03/17 06:28:04;;;;;;;7.32;3.80;;;;;;;13.83;46.56;100725.84;5065940;28;20123;-43
2023/03/17 06:30:32;;;;;;;6.10;3.45;;;;;;;14.04;46.53;100709.19;5061842;28;20123;-44
2023/03/17 06:32:58;;;;;;;7.82;3.92;;;;;;;14.21;45.96;100715.22;5065322;28;20040;-43
2023/03/17 06:35:24;;;;;;;8.02;3.83;;;;;;;14.32;45.69;100705.59;5062016;28;20569;-43
2023/03/17 06:37:49;;;;;;;8.27;3.63;;;;;;;14.44;45.71;100712.56;5065747;28;20085;-45
2023/03/17 06:40:15;;;;;;;7.50;3.85;;;;;;;14.71;44.99;100706.28;5061844;28;20082;-44
2023/03/17 06:42:40;;;;;;;6.72;3.80;;;;;;;15.09;44.15;100717.38;5065348;28;20055;-46
2023/03/17 06:45:08;;;;;;;6.43;3.60;;;;;;;15.52;42.96;100714.41;5061938;28;20028;-43
2023/03/17 06:47:36;;;;;;;7.13;3.63;;;;;;;15.73;42.85;100706.34;5065119;28;20066;-44
2023/03/17 06:50:02;;;;;;;9.52;3.85;;;;;;;15.86;42.10;100710.56;5066684;28;20029;-49
2023/03/17 06:52:28;;;;;;;7.97;3.80;;;;;;;15.64;42.24;100719.56;5062570;28;20044;-45
2023/03/17 06:54:53;;;;;;;11.85;3.60;;;;;;;15.57;42.44;100721.38;5066894;28;20048;-46
2023/03/17 06:57:18;;;;;;;7.93;3.35;;;;;;;15.45;42.88;100726.72;5064287;28;20039;-48
2023/03/17 06:59:45;;;;;;;6.60;3.85;;;;;;;15.29;42.93;100723.38;5065095;28;20402;-43
2023/03/17 07:02:10;;;;;;;8.23;3.75;;;;;;;15.18;43.39;100721.72;5061110;28;20028;-46
2023/03/17 07:04:37;;;;;;;10.40;4.10;;;;;;;15.04;43.68;100724.44;5064598;28;20033;-45
2023/03/17 07:07:04;;;;;;;7.03;3.72;;;;;;;14.92;43.76;100722.78;5064649;28;20033;-46
2023/03/17 07:09:32;;;;;;;9.27;3.75;;;;;;;15.05;43.90;100720.94;5059086;28;20028;-44
2023/03/17 07:11:57;;;;;;;9.20;3.85;;;;;;;15.14;43.69;100722.59;5064534;28;20040;-43
2023/03/17 07:14:23;;;;;;;11.88;4.47;;;;;;;14.99;43.78;100720.97;5060357;28;20082;-45
2023/03/17 07:16:49;;;;;;;7.70;4.10;;;;;;;14.96;44.21;100720.97;5063395;28;20106;-45
2023/03/17 07:19:15;;;;;;;8.57;4.05;;;;;;;15.08;44.17;100713.03;5061077;28;20035;-43
2023/03/17 07:21:40;;;;;;;10.60;3.90;;;;;;;15.09;43.97;100709.50;5065620;28;20063;-43
2023/03/17 07:24:06;;;;;;;7.78;4.32;;;;;;;15.01;44.04;100711.31;5072814;28;20025;-42
2023/03/17 07:26:32;;;;;;;11.48;4.28;;;;;;;14.97;44.44;100706.97;5068917;28;20059;-44
2023/03/17 07:28:59;;;;;;;13.43;4.40;;;;;;;15.15;44.19;100713.84;5064906;28;20064;-45
2023/03/17 07:31:25;;;;;;;13.35;4.20;;;;;;;15.30;44.07;100713.72;5066830;28;20438;-46
2023/03/17 07:33:50;;;;;;;7.15;3.83;;;;;;;15.44;43.45;100711.84;5072452;28;20040;-44
2023/03/17 07:36:16;;;;;;;8.45;4.18;;;;;;;15.29;44.01;100704.97;5065362;28;20088;-43
2023/03/17 07:38:42;;;;;;;9.50;4.05;;;;;;;15.35;43.75;100727.69;5064401;28;20036;-44
2023/03/17 07:41:09;;;;;;;10.50;4.57;;;;;;;15.28;44.10;100750.50;5067611;28;20043;-48
2023/03/17 07:43:35;;;;;;;10.68;4.75;;;;;;;15.11;44.15;100751.53;5062393;28;20056;-45
2023/03/17 07:46:02;;;;;;;11.40;4.63;;;;;;;15.27;44.05;100745.25;5065937;28;20047;-42
2023/03/17 07:48:27;;;;;;;9.50;4.60;;;;;;;15.42;43.91;100737.28;5061291;28;20423;-44
2023/03/17 07:50:52;;;;;;;9.15;4.38;;;;;;;15.55;43.51;100738.94;5064237;28;20079;-44
2023/03/17 07:53:18;;;;;;;8.05;4.57;;;;;;;15.48;43.62;100734.59;5060733;28;20029;-44
2023/03/17 07:55:43;;;;;;;6.72;4.10;;;;;;;15.44;43.69;100733.72;5063337;28;20058;-43
2023/03/17 07:58:09;;;;;;;7.82;4.50;;;;;;;15.54;43.78;100736.31;5063927;28;20031;-42
2023/03/17 08:00:34;;;;;;;11.43;4.68;;;;;;;15.50;43.53;100731.94;5067598;28;20056;-48
2023/03/17 08:03:00;;;;;;;11.88;5.15;;;;;;;15.75;43.29;100731.72;5066262;28;20028;-45
2023/03/17 08:05:26;;;;;;;10.57;4.40;;;;;;;15.88;43.32;100714.06;5061609;28;23753;-43
2023/03/17 08:07:52;;;;;;;7.75;4.72;;;;;;;15.77;43.15;100708.94;5066338;28;20037;-44
2023/03/17 08:10:17;;;;;;;7.50;4.47;;;;;;;15.89;43.05;100705.28;5060947;28;20375;-44
2023/03/17 08:12:43;;;;;;;13.40;4.30;;;;;;;15.96;43.33;100725.38;5065070;28;20031;-43
2023/03/17 08:15:09;;;;;;;8.00;4.70;;;;;;;15.72;43.25;100726.50;5062644;28;20040;-43
2023/03/17 08:17:36;;;;;;;12.02;4.88;;;;;;;15.80;43.05;100714.13;5065846;28;20123;-46
2023/03/17 08:20:03;;;;;;;12.23;5.05;;;;;;;15.89;43.15;100723.69;5067177;28;20077;-44
2023/03/17 08:22:29;;;;;;;9.73;4.78;;;;;;;16.04;42.73;100715.63;5063140;28;20040;-44
2023/03/17 08:24:54;;;;;;;11.55;5.35;;;;;;;15.96;43.06;100721.88;5066448;28;20502;-44
2023/03/17 08:27:20;;;;;;;10.77;5.35;;;;;;;15.93;43.18;100729.78;5064192;28;20048;-43
2023/03/17 08:29:45;;;;;;;9.15;4.97;;;;;;;16.07;42.63;100726.13;5068427;28;20062;-43
2023/03/17 08:32:11;;;;;;;10.57;5.00;;;;;;;16.15;42.90;100716.41;5062717;28;20040;-43
2023/03/17 08:34:37;;;;;;;12.18;5.18;;;;;;;16.21;42.94;100731.22;5067448;28;20044;-43
2023/03/17 08:37:03;;;;;;;9.68;5.30;;;;;;;16.30;42.64;100732.88;5066924;28;20036;-45
2023/03/17 08:39:28;;;;;;;11.35;5.28;;;;;;;16.17;42.74;100735.63;5062304;28;20038;-45
2023/03/17 08:41:54;;;;;;;9.93;5.72;;;;;;;16.13;43.09;100736.56;5062580;28;20032;-44
2023/03/17 08:44:20;;;;;;;12.50;5.32;;;;;;;16.23;42.76;100727.69;5058486;28;20107;-45
2023/03/17 08:46:48;;;;;;;11.13;5.90;;;;;;;15.97;42.91;100735.03;5062801;28;20029;-44
2023/03/17 08:49:15;;;;;;;9.93;5.40;;;;;;;15.97;43.23;100731.50;5059406;28;20060;-45
2023/03/17 08:51:41;;;;;;;12.55;5.80;;;;;;;15.94;43.57;100737.66;5062481;28;20067;-45
2023/03/17 08:54:07;;;;;;;10.15;6.20;;;;;;;16.04;43.30;100736.66;5059609;28;20028;-49
2023/03/17 08:56:33;;;;;;;13.88;6.20;;;;;;;16.22;43.24;100732.97;5062548;28;20029;-45
2023/03/17 08:58:59;;;;;;;11.88;5.60;;;;;;;16.43;42.87;100739.72;5064333;28;20037;-46
2023/03/17 09:01:24;;;;;;;14.25;5.90;;;;;;;16.39;43.13;100733.63;5059037;28;20439;-45
2023/03/17 09:03:53;;;;;;;9.68;5.85;;;;;;;16.78;42.38;100736.63;5063229;28;20036;-45
2023/03/17 09:06:20;;;;;;;12.65;6.07;;;;;;;16.46;43.08;100750.22;5060848;28;20055;-45
2023/03/17 09:08:46;;;;;;;10.55;5.90;;;;;;;16.79;42.74;100739.25;5062854;28;20037;-44
2023/03/17 09:11:16;;;;;;;9.82;5.78;;;;;;;16.73;42.89;100744.59;5058369;28;20059;-45
2023/03/17 09:13:43;;;;;;;13.90;5.97;;;;;;;16.28;43.74;100753.94;5062119;28;20052;-46
2023/03/17 09:16:09;;;;;;;11.27;5.88;;;;;;;16.40;44.09;100758.19;5059467;28;20043;-44
2023/03/17 09:18:34;;;;;;;12.68;6.28;;;;;;;16.16;44.35;100760.19;5059220;28;20048;-42
2023/03/17 09:21:01;;;;;;;11.45;6.15;;;;;;;16.19;44.10;100760.19;5062906;28;20074;-43
2023/03/17 09:23:27;;;;;;;11.52;5.97;;;;;;;16.48;43.86;100759.81;5058255;28;21401;-48
2023/03/17 09:25:52;;;;;;;11.15;6.28;;;;;;;16.76;43.34;100773.53;5064403;28;20037;-44
2023/03/17 09:28:17;;;;;;;10.23;6.25;;;;;;;16.64;43.81;100771.06;5059673;28;20045;-43
2023/03/17 09:30:43;;;;;;;11.25;5.85;;;;;;;16.42;44.26;100759.03;5062967;28;20179;-45
2023/03/17 09:33:10;;;;;;;9.30;6.00;;;;;;;17.35;43.21;100771.78;5058801;28;20149;-43
2023/03/17 09:35:36;;;;;;;16.58;6.35;;;;;;;16.70;43.88;100768.38;5063100;28;20119;-46
2023/03/17 09:38:01;;;;;;;13.27;6.20;;;;;;;17.26;43.31;100778.06;5066081;28;20174;-46
2023/03/17 09:40:31;;;;;;;11.52;6.43;;;;;;;17.17;43.63;100777.34;5062315;28;20158;-43
2023/03/17 09:43:09;;;;;;;13.05;6.22;;;;;;;17.70;42.87;100787.91;5065636;28;20145;-44
2023/03/17 09:45:38;;;;;;;10.25;6.07;;;;;;;17.16;43.71;100781.72;5061550;28;20040;-43
2023/03/17 09:48:27;;;;;;;11.52;6.43;;;;;;;17.17;44.05;100788.75;5062823;28;20165;-48
2023/03/17 09:51:13;;;;;;;10.65;5.85;;;;;;;17.45;43.75;100783.91;5068935;28;20075;-44
2023/03/17 09:54:00;;;;;;;10.73;6.00;;;;;;;17.49;43.45;100784.75;5062531;28;20032;-44
2023/03/17 09:56:27;;;;;;;12.60;6.03;;;;;;;17.93;43.04;100789.28;5064197;28;20055;-44
2023/03/17 09:58:57;;;;;;;11.68;6.05;;;;;;;17.33;43.96;100802.53;5067811;28;20033;-43
2023/03/17 10:01:23;;;;;;;12.48;5.90;;;;;;;18.00;43.09;100817.28;5063799;28;20041;-47
2023/03/17 10:03:49;;;;;;;10.93;6.00;;;;;;;18.08;42.66;100816.25;5066067;28;20103;-43
2023/03/17 10:06:42;;;;;;;10.60;6.25;;;;;;;17.79;42.93;100821.19;5063119;28;20036;-46
2023/03/17 10:09:36;;;;;;;11.30;6.60;;;;;;;17.58;44.10;100821.47;5063932;28;20047;-44
2023/03/17 10:12:01;;;;;;;12.85;6.25;;;;;;;18.45;42.63;100826.13;5067158;28;20032;-43
2023/03/17 10:14:37;;;;;;;11.60;6.03;;;;;;;18.49;42.31;100820.75;5063167;28;20406;-45
2023/03/17 10:17:17;;;;;;;11.05;6.38;;;;;;;18.11;43.06;100817.97;5066640;28;20035;-44
2023/03/17 10:20:07;;;;;;;12.85;6.22;;;;;;;17.93;43.63;100820.94;5063237;28;20060;-44
2023/03/17 10:22:45;;;;;;;11.10;6.35;;;;;;;18.06;43.25;100822.44;5064400;28;20028;-43
2023/03/17 10:25:22;;;;;;;18.45;6.50;;;;;;;17.59;44.26;100810.91;5064022;28;20041;-43
2023/03/17 10:27:54;;;;;;;12.98;6.95;;;;;;;17.57;44.64;100817.09;5064665;28;20568;-48
2023/03/17 10:30:22;;;;;;;12.07;6.53;;;;;;;17.75;44.46;100814.19;5061624;28;20037;-43
2023/03/17 10:32:48;;;;;;;12.65;6.57;;;;;;;17.81;44.64;100817.59;5064397;28;20044;-43
2023/03/17 10:35:15;;;;;;;11.73;6.75;;;;;;;17.78;44.85;100817.66;5061570;28;20028;-43
2023/03/17 10:37:42;;;;;;;11.48;6.47;;;;;;;18.04;43.90;100813.72;5064785;28;22577;-44
2023/03/17 10:40:23;;;;;;;11.57;6.45;;;;;;;18.11;44.06;100810.06;5061399;28;20570;-43
2023/03/17 10:42:53;;;;;;;11.38;6.90;;;;;;;18.20;44.09;100796.69;5064685;28;20040;-49
2023/03/17 10:45:31;;;;;;;15.18;6.50;;;;;;;18.37;44.00;100797.22;5065505;28;20028;-43
2023/03/17 10:47:58;;;;;;;10.88;6.75;;;;;;;18.03;44.53;100809.31;5062262;28;20051;-42
2023/03/17 10:50:31;;;;;;;14.73;6.93;;;;;;;18.33;44.31;100806.09;5062859;28;20040;-47
2023/03/17 10:53:02;;;;;;;13.05;7.10;;;;;;;18.56;43.34;100795.13;5068211;28;20394;-46
2023/03/17 10:55:32;;;;;;;14.93;6.78;;;;;;;18.62;43.43;100793.22;5064038;28;20037;-44
2023/03/17 10:58:12;;;;;;;13.90;6.80;;;;;;;18.72;43.20;100793.03;5066457;28;20119;-45
2023/03/17 11:00:44;;;;;;;12.48;6.57;;;;;;;18.83;43.01;100796.31;5060767;28;20033;-43
2023/03/17 11:03:21;;;;;;;11.98;7.03;;;;;;;18.24;43.90;100795.72;5060323;28;20115;-45
2023/03/17 11:06:04;;;;;;;11.23;7.10;;;;;;;17.82;44.93;100789.47;5064641;28;20045;-45
2023/03/17 11:08:40;;;;;;;10.77;6.78;;;;;;;18.50;43.61;100785.53;5061118;28;20789;-45
2023/03/17 11:11:19;;;;;;;13.70;6.45;;;;;;;18.74;43.61;100778.88;5067235;28;20059;-45
2023/03/17 11:13:45;;;;;;;11.70;6.85;;;;;;;18.91;42.91;100781.16;5071372;28;20032;-44
2023/03/17 11:16:22;;;;;;;13.15;7.18;;;;;;;18.83;43.25;100778.69;5061108;28;20093;-42
2023/03/17 11:18:56;;;;;;;12.70;6.88;;;;;;;18.58;43.46;100772.19;5069812;28;20094;-44
2023/03/17 11:21:28;;;;;;;13.55;7.03;;;;;;;17.96;45.31;100778.69;5071365;28;20024;-43
2023/03/17 11:24:11;;;;;;;15.50;6.90;;;;;;;18.16;44.95;100774.78;5064350;28;20041;-43